sensor_id;sensor_type;location;lat;lon;timestamp;P1;durP1;ratioP1;P2;durP2;ratioP2
74229;SDS011;62589;12.568;99.958;2022-08-25T00:00:32;8.20;;;2.95;;
74229;SDS011;62589;12.568;99.958;2022-08-25T00:03:01;4.32;;;2.40;;
74229;SDS011;62589;12.568;99.958;2022-08-25T00:05:28;5.57;;;2.55;;
74229;SDS011;62589;12.568;99.958;2022-08-25T00:07:56;5.47;;;2.78;;
74229;SDS011;62589;12.568;99.958;2022-08-25T00:10:22;6.78;;;2.90;;
74229;SDS011;62589;12.568;99.958;2022-08-25T00:12:49;8.25;;;2.25;;
74229;SDS011;62589;12.568;99.958;2022-08-25T00:15:16;5.82;;;2.75;;
74229;SDS011;62589;12.568;99.958;2022-08-25T00:17:42;8.13;;;2.83;;
74229;SDS011;62589;12.568;99.958;2022-08-25T00:20:09;6.63;;;3.05;;
74229;SDS011;62589;12.568;99.958;2022-08-25T00:22:35;6.97;;;3.20;;
74229;SDS011;62589;12.568;99.958;2022-08-25T00:25:02;5.25;;;3.03;;
74229;SDS011;62589;12.568;99.958;2022-08-25T00:27:29;5.60;;;2.90;;
74229;SDS011;62589;12.568;99.958;2022-08-25T00:29:55;5.95;;;2.53;;
74229;SDS011;62589;12.568;99.958;2022-08-25T00:32:22;5.45;;;2.70;;
74229;SDS011;62589;12.568;99.958;2022-08-25T00:34:50;4.32;;;2.35;;
74229;SDS011;62589;12.568;99.958;2022-08-25T00:37:16;5.90;;;2.50;;
74229;SDS011;62589;12.568;99.958;2022-08-25T00:39:42;7.55;;;2.55;;
74229;SDS011;62589;12.568;99.958;2022-08-25T00:42:09;4.90;;;2.63;;
74229;SDS011;62589;12.568;99.958;2022-08-25T00:44:37;8.25;;;3.05;;
74229;SDS011;62589;12.568;99.958;2022-08-25T00:47:04;7.20;;;3.00;;
74229;SDS011;62589;12.568;99.958;2022-08-25T00:49:35;6.75;;;2.53;;
74229;SDS011;62589;12.568;99.958;2022-08-25T00:52:21;6.15;;;2.78;;
74229;SDS011;62589;12.568;99.958;2022-08-25T00:54:56;6.32;;;2.70;;
74229;SDS011;62589;12.568;99.958;2022-08-25T00:57:32;7.95;;;3.00;;
74229;SDS011;62589;12.568;99.958;2022-08-25T01:00:14;5.45;;;2.92;;
74229;SDS011;62589;12.568;99.958;2022-08-25T01:02:44;7.60;;;3.65;;
74229;SDS011;62589;12.568;99.958;2022-08-25T01:05:10;6.40;;;3.75;;
74229;SDS011;62589;12.568;99.958;2022-08-25T01:07:38;8.23;;;4.32;;
74229;SDS011;62589;12.568;99.958;2022-08-25T01:10:08;7.63;;;5.15;;
74229;SDS011;62589;12.568;99.958;2022-08-25T01:12:37;10.18;;;5.20;;
74229;SDS011;62589;12.568;99.958;2022-08-25T01:15:05;9.35;;;4.45;;
74229;SDS011;62589;12.568;99.958;2022-08-25T01:17:37;6.55;;;4.18;;
74229;SDS011;62589;12.568;99.958;2022-08-25T01:20:17;7.22;;;4.13;;
74229;SDS011;62589;12.568;99.958;2022-08-25T01:22:45;10.52;;;3.85;;
74229;SDS011;62589;12.568;99.958;2022-08-25T01:28:18;7.55;;;3.55;;
74229;SDS011;62589;12.568;99.958;2022-08-25T01:30:45;5.22;;;2.75;;
74229;SDS011;62589;12.568;99.958;2022-08-25T01:33:12;6.63;;;2.90;;
74229;SDS011;62589;12.568;99.958;2022-08-25T01:35:39;4.15;;;2.33;;
74229;SDS011;62589;12.568;99.958;2022-08-25T01:38:06;4.68;;;2.83;;
74229;SDS011;62589;12.568;99.958;2022-08-25T01:40:33;6.97;;;2.58;;
74229;SDS011;62589;12.568;99.958;2022-08-25T01:43:21;6.03;;;2.60;;
74229;SDS011;62589;12.568;99.958;2022-08-25T01:46:01;7.90;;;3.05;;
74229;SDS011;62589;12.568;99.958;2022-08-25T01:48:27;7.32;;;3.40;;
74229;SDS011;62589;12.568;99.958;2022-08-25T01:50:54;9.98;;;4.03;;
74229;SDS011;62589;12.568;99.958;2022-08-25T01:53:27;7.30;;;4.07;;
74229;SDS011;62589;12.568;99.958;2022-08-25T01:55:56;7.63;;;3.90;;
74229;SDS011;62589;12.568;99.958;2022-08-25T01:58:31;10.55;;;3.95;;
74229;SDS011;62589;12.568;99.958;2022-08-25T02:01:02;5.93;;;3.83;;
74229;SDS011;62589;12.568;99.958;2022-08-25T02:03:34;7.63;;;3.50;;
74229;SDS011;62589;12.568;99.958;2022-08-25T02:06:04;5.18;;;2.65;;
74229;SDS011;62589;12.568;99.958;2022-08-25T02:08:31;4.28;;;2.63;;
74229;SDS011;62589;12.568;99.958;2022-08-25T02:10:58;4.45;;;2.40;;
74229;SDS011;62589;12.568;99.958;2022-08-25T02:13:25;4.72;;;2.67;;
74229;SDS011;62589;12.568;99.958;2022-08-25T02:15:52;4.63;;;2.33;;
74229;SDS011;62589;12.568;99.958;2022-08-25T02:18:21;4.10;;;2.30;;
74229;SDS011;62589;12.568;99.958;2022-08-25T02:20:48;4.72;;;2.30;;
74229;SDS011;62589;12.568;99.958;2022-08-25T02:23:15;3.25;;;2.05;;
74229;SDS011;62589;12.568;99.958;2022-08-25T02:25:42;5.68;;;2.28;;
74229;SDS011;62589;12.568;99.958;2022-08-25T02:28:09;3.72;;;2.08;;
74229;SDS011;62589;12.568;99.958;2022-08-25T02:30:36;6.32;;;1.83;;
74229;SDS011;62589;12.568;99.958;2022-08-25T02:33:04;3.22;;;1.98;;
74229;SDS011;62589;12.568;99.958;2022-08-25T02:35:31;1.73;;;1.55;;
74229;SDS011;62589;12.568;99.958;2022-08-25T02:37:57;3.00;;;2.00;;
74229;SDS011;62589;12.568;99.958;2022-08-25T02:40:23;3.78;;;2.10;;
74229;SDS011;62589;12.568;99.958;2022-08-25T02:42:51;5.38;;;2.33;;
74229;SDS011;62589;12.568;99.958;2022-08-25T02:45:18;5.75;;;2.08;;
74229;SDS011;62589;12.568;99.958;2022-08-25T02:47:45;6.90;;;2.28;;
74229;SDS011;62589;12.568;99.958;2022-08-25T02:50:11;3.05;;;1.83;;
74229;SDS011;62589;12.568;99.958;2022-08-25T02:52:38;6.70;;;2.20;;
74229;SDS011;62589;12.568;99.958;2022-08-25T02:55:06;3.67;;;2.00;;
74229;SDS011;62589;12.568;99.958;2022-08-25T02:57:37;6.85;;;2.30;;
74229;SDS011;62589;12.568;99.958;2022-08-25T03:00:03;5.03;;;2.15;;
74229;SDS011;62589;12.568;99.958;2022-08-25T03:02:30;3.22;;;2.38;;
74229;SDS011;62589;12.568;99.958;2022-08-25T03:04:57;3.75;;;2.00;;
74229;SDS011;62589;12.568;99.958;2022-08-25T03:07:24;3.35;;;2.03;;
74229;SDS011;62589;12.568;99.958;2022-08-25T03:09:51;6.40;;;2.28;;
74229;SDS011;62589;12.568;99.958;2022-08-25T03:12:17;5.20;;;2.30;;
74229;SDS011;62589;12.568;99.958;2022-08-25T03:14:44;5.53;;;2.60;;
74229;SDS011;62589;12.568;99.958;2022-08-25T03:17:11;3.92;;;2.22;;
74229;SDS011;62589;12.568;99.958;2022-08-25T03:19:37;5.07;;;2.30;;
74229;SDS011;62589;12.568;99.958;2022-08-25T03:22:04;6.97;;;2.30;;
74229;SDS011;62589;12.568;99.958;2022-08-25T03:24:31;4.78;;;1.98;;
74229;SDS011;62589;12.568;99.958;2022-08-25T03:26:58;5.18;;;2.17;;
74229;SDS011;62589;12.568;99.958;2022-08-25T03:29:26;2.40;;;1.80;;
74229;SDS011;62589;12.568;99.958;2022-08-25T03:31:56;3.35;;;1.60;;
74229;SDS011;62589;12.568;99.958;2022-08-25T03:34:24;5.05;;;1.90;;
74229;SDS011;62589;12.568;99.958;2022-08-25T03:36:53;4.72;;;2.20;;
74229;SDS011;62589;12.568;99.958;2022-08-25T03:39:21;8.20;;;2.28;;
74229;SDS011;62589;12.568;99.958;2022-08-25T03:41:50;4.15;;;1.73;;
74229;SDS011;62589;12.568;99.958;2022-08-25T03:44:17;7.97;;;2.60;;
74229;SDS011;62589;12.568;99.958;2022-08-25T03:46:46;5.60;;;2.50;;
74229;SDS011;62589;12.568;99.958;2022-08-25T03:49:16;6.20;;;1.85;;
74229;SDS011;62589;12.568;99.958;2022-08-25T03:51:48;7.28;;;2.75;;
74229;SDS011;62589;12.568;99.958;2022-08-25T03:54:17;5.95;;;2.80;;
74229;SDS011;62589;12.568;99.958;2022-08-25T03:56:46;5.40;;;2.50;;
74229;SDS011;62589;12.568;99.958;2022-08-25T03:59:13;5.97;;;2.50;;
74229;SDS011;62589;12.568;99.958;2022-08-25T04:01:40;5.32;;;2.42;;
74229;SDS011;62589;12.568;99.958;2022-08-25T04:04:10;5.88;;;2.25;;
74229;SDS011;62589;12.568;99.958;2022-08-25T04:06:40;4.57;;;2.10;;
74229;SDS011;62589;12.568;99.958;2022-08-25T04:09:08;5.53;;;2.47;;
74229;SDS011;62589;12.568;99.958;2022-08-25T04:11:36;4.45;;;2.38;;
74229;SDS011;62589;12.568;99.958;2022-08-25T04:14:03;3.97;;;2.42;;
74229;SDS011;62589;12.568;99.958;2022-08-25T04:16:30;3.92;;;2.00;;
74229;SDS011;62589;12.568;99.958;2022-08-25T04:18:59;4.22;;;2.00;;
74229;SDS011;62589;12.568;99.958;2022-08-25T04:21:28;3.90;;;2.08;;
74229;SDS011;62589;12.568;99.958;2022-08-25T04:23:55;4.05;;;2.20;;
74229;SDS011;62589;12.568;99.958;2022-08-25T04:26:25;4.75;;;1.60;;
74229;SDS011;62589;12.568;99.958;2022-08-25T04:28:58;5.47;;;2.42;;
74229;SDS011;62589;12.568;99.958;2022-08-25T04:31:26;3.65;;;2.15;;
74229;SDS011;62589;12.568;99.958;2022-08-25T04:33:54;5.10;;;1.90;;
74229;SDS011;62589;12.568;99.958;2022-08-25T04:36:21;4.30;;;2.20;;
74229;SDS011;62589;12.568;99.958;2022-08-25T04:38:48;4.32;;;2.05;;
74229;SDS011;62589;12.568;99.958;2022-08-25T04:41:16;7.38;;;2.30;;
74229;SDS011;62589;12.568;99.958;2022-08-25T04:43:44;6.13;;;2.00;;
74229;SDS011;62589;12.568;99.958;2022-08-25T04:46:12;5.88;;;2.15;;
74229;SDS011;62589;12.568;99.958;2022-08-25T04:48:47;6.07;;;2.15;;
74229;SDS011;62589;12.568;99.958;2022-08-25T04:51:18;4.20;;;2.10;;
74229;SDS011;62589;12.568;99.958;2022-08-25T04:53:48;3.90;;;1.88;;
74229;SDS011;62589;12.568;99.958;2022-08-25T04:56:16;5.68;;;2.60;;
74229;SDS011;62589;12.568;99.958;2022-08-25T04:58:44;6.93;;;3.40;;
74229;SDS011;62589;12.568;99.958;2022-08-25T05:01:13;9.73;;;3.45;;
74229;SDS011;62589;12.568;99.958;2022-08-25T05:03:52;16.92;;;6.30;;
74229;SDS011;62589;12.568;99.958;2022-08-25T05:06:24;12.55;;;5.78;;
74229;SDS011;62589;12.568;99.958;2022-08-25T05:08:51;12.38;;;6.28;;
74229;SDS011;62589;12.568;99.958;2022-08-25T05:11:18;10.20;;;5.60;;
74229;SDS011;62589;12.568;99.958;2022-08-25T05:13:47;7.97;;;4.28;;
74229;SDS011;62589;12.568;99.958;2022-08-25T05:16:15;9.40;;;3.60;;
74229;SDS011;62589;12.568;99.958;2022-08-25T05:18:42;10.13;;;3.55;;
74229;SDS011;62589;12.568;99.958;2022-08-25T05:21:10;5.72;;;2.47;;
74229;SDS011;62589;12.568;99.958;2022-08-25T05:23:39;6.65;;;2.42;;
74229;SDS011;62589;12.568;99.958;2022-08-25T05:26:10;7.43;;;2.40;;
74229;SDS011;62589;12.568;99.958;2022-08-25T05:28:42;8.00;;;2.88;;
74229;SDS011;62589;12.568;99.958;2022-08-25T05:31:10;7.07;;;2.95;;
74229;SDS011;62589;12.568;99.958;2022-08-25T05:33:38;8.38;;;2.85;;
74229;SDS011;62589;12.568;99.958;2022-08-25T05:36:06;6.53;;;3.17;;
74229;SDS011;62589;12.568;99.958;2022-08-25T05:38:34;7.45;;;2.70;;
74229;SDS011;62589;12.568;99.958;2022-08-25T05:41:04;6.20;;;2.97;;
74229;SDS011;62589;12.568;99.958;2022-08-25T05:43:35;7.85;;;3.15;;
74229;SDS011;62589;12.568;99.958;2022-08-25T05:46:04;6.78;;;3.05;;
74229;SDS011;62589;12.568;99.958;2022-08-25T05:48:31;6.82;;;2.97;;
74229;SDS011;62589;12.568;99.958;2022-08-25T05:50:59;8.15;;;3.60;;
74229;SDS011;62589;12.568;99.958;2022-08-25T05:53:27;7.10;;;2.83;;
74229;SDS011;62589;12.568;99.958;2022-08-25T05:55:55;9.60;;;3.22;;
74229;SDS011;62589;12.568;99.958;2022-08-25T05:58:24;6.00;;;2.83;;
74229;SDS011;62589;12.568;99.958;2022-08-25T06:00:55;7.55;;;2.83;;
74229;SDS011;62589;12.568;99.958;2022-08-25T06:03:42;5.47;;;2.88;;
74229;SDS011;62589;12.568;99.958;2022-08-25T06:06:10;9.18;;;3.05;;
74229;SDS011;62589;12.568;99.958;2022-08-25T06:08:36;6.28;;;2.70;;
74229;SDS011;62589;12.568;99.958;2022-08-25T06:11:02;7.43;;;2.70;;
74229;SDS011;62589;12.568;99.958;2022-08-25T06:13:29;6.05;;;2.78;;
74229;SDS011;62589;12.568;99.958;2022-08-25T06:15:58;5.72;;;2.85;;
74229;SDS011;62589;12.568;99.958;2022-08-25T06:18:25;6.82;;;3.30;;
74229;SDS011;62589;12.568;99.958;2022-08-25T06:20:52;6.15;;;3.03;;
74229;SDS011;62589;12.568;99.958;2022-08-25T06:23:19;7.18;;;3.65;;
74229;SDS011;62589;12.568;99.958;2022-08-25T06:25:48;7.65;;;3.00;;
74229;SDS011;62589;12.568;99.958;2022-08-25T06:28:16;6.20;;;2.88;;
74229;SDS011;62589;12.568;99.958;2022-08-25T06:30:43;6.18;;;3.80;;
74229;SDS011;62589;12.568;99.958;2022-08-25T06:33:10;7.00;;;3.60;;
74229;SDS011;62589;12.568;99.958;2022-08-25T06:35:39;9.98;;;3.70;;
74229;SDS011;62589;12.568;99.958;2022-08-25T06:38:07;5.88;;;3.55;;
74229;SDS011;62589;12.568;99.958;2022-08-25T06:40:34;8.25;;;3.47;;
74229;SDS011;62589;12.568;99.958;2022-08-25T06:43:01;7.55;;;3.88;;
74229;SDS011;62589;12.568;99.958;2022-08-25T06:45:31;5.53;;;3.30;;
74229;SDS011;62589;12.568;99.958;2022-08-25T06:47:57;12.20;;;4.10;;
74229;SDS011;62589;12.568;99.958;2022-08-25T06:50:23;15.02;;;3.90;;
74229;SDS011;62589;12.568;99.958;2022-08-25T06:52:50;7.93;;;3.42;;
74229;SDS011;62589;12.568;99.958;2022-08-25T06:55:16;10.63;;;3.72;;
74229;SDS011;62589;12.568;99.958;2022-08-25T06:57:43;10.98;;;3.72;;
74229;SDS011;62589;12.568;99.958;2022-08-25T07:00:10;6.68;;;2.78;;
74229;SDS011;62589;12.568;99.958;2022-08-25T07:02:36;11.23;;;3.33;;
74229;SDS011;62589;12.568;99.958;2022-08-25T07:05:03;6.15;;;2.95;;
74229;SDS011;62589;12.568;99.958;2022-08-25T07:07:31;6.97;;;3.28;;
74229;SDS011;62589;12.568;99.958;2022-08-25T07:09:57;7.03;;;3.20;;
74229;SDS011;62589;12.568;99.958;2022-08-25T07:12:24;10.90;;;3.25;;
74229;SDS011;62589;12.568;99.958;2022-08-25T07:14:50;6.85;;;3.00;;
74229;SDS011;62589;12.568;99.958;2022-08-25T07:17:16;6.47;;;3.17;;
74229;SDS011;62589;12.568;99.958;2022-08-25T07:19:43;7.88;;;2.67;;
74229;SDS011;62589;12.568;99.958;2022-08-25T07:22:10;7.43;;;2.97;;
74229;SDS011;62589;12.568;99.958;2022-08-25T07:24:36;6.55;;;2.92;;
74229;SDS011;62589;12.568;99.958;2022-08-25T07:27:02;7.47;;;2.33;;
74229;SDS011;62589;12.568;99.958;2022-08-25T07:29:29;6.47;;;2.70;;
74229;SDS011;62589;12.568;99.958;2022-08-25T07:31:58;7.70;;;2.83;;
74229;SDS011;62589;12.568;99.958;2022-08-25T07:34:25;12.18;;;3.08;;
74229;SDS011;62589;12.568;99.958;2022-08-25T07:37:03;9.07;;;2.92;;
74229;SDS011;62589;12.568;99.958;2022-08-25T07:39:30;8.70;;;3.15;;
74229;SDS011;62589;12.568;99.958;2022-08-25T07:41:58;7.82;;;2.90;;
74229;SDS011;62589;12.568;99.958;2022-08-25T07:44:25;6.43;;;2.65;;
74229;SDS011;62589;12.568;99.958;2022-08-25T07:46:52;6.43;;;2.97;;
74229;SDS011;62589;12.568;99.958;2022-08-25T07:49:20;9.15;;;3.55;;
74229;SDS011;62589;12.568;99.958;2022-08-25T07:51:48;7.05;;;3.35;;
74229;SDS011;62589;12.568;99.958;2022-08-25T07:54:15;5.25;;;2.70;;
74229;SDS011;62589;12.568;99.958;2022-08-25T07:56:41;5.10;;;2.50;;
74229;SDS011;62589;12.568;99.958;2022-08-25T07:59:08;6.63;;;2.67;;
74229;SDS011;62589;12.568;99.958;2022-08-25T08:01:35;5.82;;;2.35;;
74229;SDS011;62589;12.568;99.958;2022-08-25T08:04:02;6.70;;;2.65;;
74229;SDS011;62589;12.568;99.958;2022-08-25T08:06:29;6.03;;;2.45;;
74229;SDS011;62589;12.568;99.958;2022-08-25T08:08:55;6.38;;;3.20;;
74229;SDS011;62589;12.568;99.958;2022-08-25T08:11:26;7.95;;;2.85;;
74229;SDS011;62589;12.568;99.958;2022-08-25T08:13:55;5.05;;;2.63;;
74229;SDS011;62589;12.568;99.958;2022-08-25T08:16:23;5.88;;;2.13;;
74229;SDS011;62589;12.568;99.958;2022-08-25T08:18:51;8.30;;;2.40;;
74229;SDS011;62589;12.568;99.958;2022-08-25T08:21:19;9.70;;;2.95;;
74229;SDS011;62589;12.568;99.958;2022-08-25T08:23:48;4.53;;;2.15;;
74229;SDS011;62589;12.568;99.958;2022-08-25T08:26:16;6.72;;;2.45;;
74229;SDS011;62589;12.568;99.958;2022-08-25T08:28:43;6.90;;;2.90;;
74229;SDS011;62589;12.568;99.958;2022-08-25T08:31:10;7.45;;;2.60;;
74229;SDS011;62589;12.568;99.958;2022-08-25T08:33:36;4.45;;;2.55;;
74229;SDS011;62589;12.568;99.958;2022-08-25T08:36:04;5.43;;;2.65;;
74229;SDS011;62589;12.568;99.958;2022-08-25T08:38:34;6.75;;;2.78;;
74229;SDS011;62589;12.568;99.958;2022-08-25T08:41:06;6.80;;;2.55;;
74229;SDS011;62589;12.568;99.958;2022-08-25T08:44:02;5.80;;;2.40;;
74229;SDS011;62589;12.568;99.958;2022-08-25T08:46:53;10.15;;;3.38;;
74229;SDS011;62589;12.568;99.958;2022-08-25T08:55:44;13.75;;;3.35;;
74229;SDS011;62589;12.568;99.958;2022-08-25T08:58:16;9.15;;;2.70;;
74229;SDS011;62589;12.568;99.958;2022-08-25T09:00:46;8.20;;;3.00;;
74229;SDS011;62589;12.568;99.958;2022-08-25T09:09:10;8.27;;;3.30;;
74229;SDS011;62589;12.568;99.958;2022-08-25T09:11:48;7.20;;;3.08;;
74229;SDS011;62589;12.568;99.958;2022-08-25T09:17:47;8.10;;;3.22;;
74229;SDS011;62589;12.568;99.958;2022-08-25T09:20:38;5.47;;;2.60;;
74229;SDS011;62589;12.568;99.958;2022-08-25T09:29:18;7.68;;;2.88;;
74229;SDS011;62589;12.568;99.958;2022-08-25T09:31:49;7.85;;;3.10;;
74229;SDS011;62589;12.568;99.958;2022-08-25T09:34:16;8.85;;;2.80;;
74229;SDS011;62589;12.568;99.958;2022-08-25T09:36:45;8.48;;;2.72;;
74229;SDS011;62589;12.568;99.958;2022-08-25T09:39:15;8.68;;;3.17;;
74229;SDS011;62589;12.568;99.958;2022-08-25T09:41:52;7.20;;;2.92;;
74229;SDS011;62589;12.568;99.958;2022-08-25T09:47:21;7.78;;;3.10;;
74229;SDS011;62589;12.568;99.958;2022-08-25T09:50:02;6.78;;;2.67;;
74229;SDS011;62589;12.568;99.958;2022-08-25T09:52:33;8.95;;;3.03;;
74229;SDS011;62589;12.568;99.958;2022-08-25T09:57:52;7.53;;;3.08;;
74229;SDS011;62589;12.568;99.958;2022-08-25T10:00:28;10.82;;;3.30;;
74229;SDS011;62589;12.568;99.958;2022-08-25T10:11:39;11.23;;;4.00;;
74229;SDS011;62589;12.568;99.958;2022-08-25T10:19:52;8.18;;;3.13;;
74229;SDS011;62589;12.568;99.958;2022-08-25T10:22:37;7.18;;;2.80;;
74229;SDS011;62589;12.568;99.958;2022-08-25T10:25:06;5.30;;;2.60;;
74229;SDS011;62589;12.568;99.958;2022-08-25T10:27:37;7.10;;;2.92;;
74229;SDS011;62589;12.568;99.958;2022-08-25T10:30:30;5.85;;;2.65;;
74229;SDS011;62589;12.568;99.958;2022-08-25T10:33:24;7.15;;;3.00;;
74229;SDS011;62589;12.568;99.958;2022-08-25T10:36:19;5.32;;;2.70;;
74229;SDS011;62589;12.568;99.958;2022-08-25T10:38:57;7.25;;;3.22;;
74229;SDS011;62589;12.568;99.958;2022-08-25T10:44:29;9.45;;;4.65;;
74229;SDS011;62589;12.568;99.958;2022-08-25T10:50:17;34.88;;;19.75;;
74229;SDS011;62589;12.568;99.958;2022-08-25T10:56:11;119.05;;;55.08;;
74229;SDS011;62589;12.568;99.958;2022-08-25T10:58:57;81.93;;;40.05;;
74229;SDS011;62589;12.568;99.958;2022-08-25T11:01:52;51.40;;;25.20;;
74229;SDS011;62589;12.568;99.958;2022-08-25T11:04:45;26.67;;;13.48;;
74229;SDS011;62589;12.568;99.958;2022-08-25T11:07:45;19.77;;;8.52;;
74229;SDS011;62589;12.568;99.958;2022-08-25T11:10:17;17.42;;;6.07;;
74229;SDS011;62589;12.568;99.958;2022-08-25T11:13:00;12.23;;;4.20;;
74229;SDS011;62589;12.568;99.958;2022-08-25T11:15:37;9.32;;;3.92;;
74229;SDS011;62589;12.568;99.958;2022-08-25T11:18:26;7.55;;;3.22;;
74229;SDS011;62589;12.568;99.958;2022-08-25T11:21:05;10.30;;;3.30;;
74229;SDS011;62589;12.568;99.958;2022-08-25T11:23:43;9.02;;;3.58;;
74229;SDS011;62589;12.568;99.958;2022-08-25T11:26:27;11.98;;;4.18;;
74229;SDS011;62589;12.568;99.958;2022-08-25T11:31:38;7.82;;;3.92;;
74229;SDS011;62589;12.568;99.958;2022-08-25T11:34:10;8.43;;;4.43;;
74229;SDS011;62589;12.568;99.958;2022-08-25T11:36:54;11.63;;;5.00;;
74229;SDS011;62589;12.568;99.958;2022-08-25T11:42:33;11.65;;;4.93;;
74229;SDS011;62589;12.568;99.958;2022-08-25T11:48:12;11.27;;;4.43;;
74229;SDS011;62589;12.568;99.958;2022-08-25T11:51:26;12.45;;;4.93;;
74229;SDS011;62589;12.568;99.958;2022-08-25T11:54:27;9.00;;;4.85;;
74229;SDS011;62589;12.568;99.958;2022-08-25T11:57:00;9.80;;;5.15;;
74229;SDS011;62589;12.568;99.958;2022-08-25T12:02:32;14.00;;;5.55;;
74229;SDS011;62589;12.568;99.958;2022-08-25T12:08:09;7.53;;;4.60;;
74229;SDS011;62589;12.568;99.958;2022-08-25T12:13:43;10.35;;;3.33;;
74229;SDS011;62589;12.568;99.958;2022-08-25T12:21:54;5.68;;;2.35;;
74229;SDS011;62589;12.568;99.958;2022-08-25T12:27:54;9.40;;;2.65;;
74229;SDS011;62589;12.568;99.958;2022-08-25T12:30:44;7.35;;;1.77;;
74229;SDS011;62589;12.568;99.958;2022-08-25T12:36:07;3.45;;;1.75;;
74229;SDS011;62589;12.568;99.958;2022-08-25T12:38:40;4.15;;;1.48;;
74229;SDS011;62589;12.568;99.958;2022-08-25T12:41:20;3.53;;;1.70;;
74229;SDS011;62589;12.568;99.958;2022-08-25T12:44:08;5.97;;;2.00;;
74229;SDS011;62589;12.568;99.958;2022-08-25T12:49:46;7.95;;;1.98;;
74229;SDS011;62589;12.568;99.958;2022-08-25T12:52:17;8.55;;;2.47;;
74229;SDS011;62589;12.568;99.958;2022-08-25T12:54:49;7.53;;;2.45;;
74229;SDS011;62589;12.568;99.958;2022-08-25T13:00:19;6.07;;;2.40;;
74229;SDS011;62589;12.568;99.958;2022-08-25T13:14:40;2.92;;;0.70;;
74229;SDS011;62589;12.568;99.958;2022-08-25T13:17:08;2.55;;;0.60;;
74229;SDS011;62589;12.568;99.958;2022-08-25T13:19:35;3.33;;;0.95;;
74229;SDS011;62589;12.568;99.958;2022-08-25T13:22:09;4.10;;;1.55;;
74229;SDS011;62589;12.568;99.958;2022-08-25T13:24:39;4.57;;;1.38;;
74229;SDS011;62589;12.568;99.958;2022-08-25T13:27:08;5.68;;;1.77;;
74229;SDS011;62589;12.568;99.958;2022-08-25T13:29:50;7.13;;;1.70;;
74229;SDS011;62589;12.568;99.958;2022-08-25T13:32:27;6.95;;;2.05;;
74229;SDS011;62589;12.568;99.958;2022-08-25T13:35:11;7.93;;;2.60;;
74229;SDS011;62589;12.568;99.958;2022-08-25T13:37:41;13.50;;;2.20;;
74229;SDS011;62589;12.568;99.958;2022-08-25T13:40:13;9.63;;;2.15;;
74229;SDS011;62589;12.568;99.958;2022-08-25T13:42:52;7.80;;;1.77;;
74229;SDS011;62589;12.568;99.958;2022-08-25T13:45:25;5.57;;;1.55;;
74229;SDS011;62589;12.568;99.958;2022-08-25T13:47:54;5.05;;;1.70;;
74229;SDS011;62589;12.568;99.958;2022-08-25T13:53:12;3.38;;;1.60;;
74229;SDS011;62589;12.568;99.958;2022-08-25T13:55:50;2.25;;;1.25;;
74229;SDS011;62589;12.568;99.958;2022-08-25T13:58:20;4.60;;;1.60;;
74229;SDS011;62589;12.568;99.958;2022-08-25T14:03:50;6.05;;;1.73;;
74229;SDS011;62589;12.568;99.958;2022-08-25T14:06:20;3.20;;;1.25;;
74229;SDS011;62589;12.568;99.958;2022-08-25T14:09:04;6.15;;;1.20;;
74229;SDS011;62589;12.568;99.958;2022-08-25T14:11:46;5.38;;;1.73;;
74229;SDS011;62589;12.568;99.958;2022-08-25T14:14:29;9.75;;;1.88;;
74229;SDS011;62589;12.568;99.958;2022-08-25T14:17:00;14.55;;;1.67;;
74229;SDS011;62589;12.568;99.958;2022-08-25T14:19:33;7.90;;;2.42;;
74229;SDS011;62589;12.568;99.958;2022-08-25T14:22:02;11.52;;;1.85;;
74229;SDS011;62589;12.568;99.958;2022-08-25T14:24:32;8.73;;;1.50;;
74229;SDS011;62589;12.568;99.958;2022-08-25T14:27:02;4.15;;;1.73;;
74229;SDS011;62589;12.568;99.958;2022-08-25T14:29:29;5.43;;;1.30;;
74229;SDS011;62589;12.568;99.958;2022-08-25T14:31:56;5.82;;;1.67;;
74229;SDS011;62589;12.568;99.958;2022-08-25T14:34:25;7.97;;;1.52;;
74229;SDS011;62589;12.568;99.958;2022-08-25T14:36:57;6.75;;;1.35;;
74229;SDS011;62589;12.568;99.958;2022-08-25T14:39:27;5.47;;;1.38;;
74229;SDS011;62589;12.568;99.958;2022-08-25T14:41:53;8.40;;;1.60;;
74229;SDS011;62589;12.568;99.958;2022-08-25T14:44:20;3.47;;;1.48;;
74229;SDS011;62589;12.568;99.958;2022-08-25T14:46:48;6.95;;;1.65;;
74229;SDS011;62589;12.568;99.958;2022-08-25T14:49:23;5.68;;;1.92;;
74229;SDS011;62589;12.568;99.958;2022-08-25T14:51:54;4.88;;;1.77;;
74229;SDS011;62589;12.568;99.958;2022-08-25T14:54:24;5.60;;;1.40;;
74229;SDS011;62589;12.568;99.958;2022-08-25T14:56:52;3.28;;;1.35;;
74229;SDS011;62589;12.568;99.958;2022-08-25T14:59:20;5.18;;;1.10;;
74229;SDS011;62589;12.568;99.958;2022-08-25T15:01:46;9.93;;;1.80;;
74229;SDS011;62589;12.568;99.958;2022-08-25T15:04:16;6.68;;;1.38;;
74229;SDS011;62589;12.568;99.958;2022-08-25T15:06:47;4.65;;;1.17;;
74229;SDS011;62589;12.568;99.958;2022-08-25T15:09:19;2.83;;;1.05;;
74229;SDS011;62589;12.568;99.958;2022-08-25T15:11:47;5.13;;;1.25;;
74229;SDS011;62589;12.568;99.958;2022-08-25T15:14:16;4.95;;;1.10;;
74229;SDS011;62589;12.568;99.958;2022-08-25T15:16:45;4.75;;;1.00;;
74229;SDS011;62589;12.568;99.958;2022-08-25T15:19:15;2.38;;;1.20;;
74229;SDS011;62589;12.568;99.958;2022-08-25T15:21:45;3.35;;;1.10;;
74229;SDS011;62589;12.568;99.958;2022-08-25T15:24:13;2.38;;;1.15;;
74229;SDS011;62589;12.568;99.958;2022-08-25T15:29:27;4.25;;;1.65;;
74229;SDS011;62589;12.568;99.958;2022-08-25T15:31:55;5.40;;;1.77;;
74229;SDS011;62589;12.568;99.958;2022-08-25T15:34:24;3.13;;;1.10;;
74229;SDS011;62589;12.568;99.958;2022-08-25T15:36:51;5.50;;;1.55;;
74229;SDS011;62589;12.568;99.958;2022-08-25T15:39:17;5.40;;;1.45;;
74229;SDS011;62589;12.568;99.958;2022-08-25T15:41:45;2.95;;;1.20;;
74229;SDS011;62589;12.568;99.958;2022-08-25T15:44:18;3.95;;;1.42;;
74229;SDS011;62589;12.568;99.958;2022-08-25T15:46:46;5.25;;;1.40;;
74229;SDS011;62589;12.568;99.958;2022-08-25T15:49:12;6.18;;;1.70;;
74229;SDS011;62589;12.568;99.958;2022-08-25T15:51:39;4.65;;;1.48;;
74229;SDS011;62589;12.568;99.958;2022-08-25T15:54:06;6.70;;;1.70;;
74229;SDS011;62589;12.568;99.958;2022-08-25T15:56:32;3.03;;;1.27;;
74229;SDS011;62589;12.568;99.958;2022-08-25T15:58:59;10.63;;;1.20;;
74229;SDS011;62589;12.568;99.958;2022-08-25T16:01:29;3.63;;;1.27;;
74229;SDS011;62589;12.568;99.958;2022-08-25T16:03:56;3.78;;;1.20;;
74229;SDS011;62589;12.568;99.958;2022-08-25T16:06:23;4.32;;;1.35;;
74229;SDS011;62589;12.568;99.958;2022-08-25T16:08:51;4.78;;;1.70;;
74229;SDS011;62589;12.568;99.958;2022-08-25T16:11:22;4.82;;;1.23;;
74229;SDS011;62589;12.568;99.958;2022-08-25T16:13:50;4.32;;;1.80;;
74229;SDS011;62589;12.568;99.958;2022-08-25T16:16:18;4.90;;;1.60;;
74229;SDS011;62589;12.568;99.958;2022-08-25T16:18:46;5.47;;;2.00;;
74229;SDS011;62589;12.568;99.958;2022-08-25T16:21:14;4.97;;;1.75;;
74229;SDS011;62589;12.568;99.958;2022-08-25T16:23:44;4.13;;;1.73;;
74229;SDS011;62589;12.568;99.958;2022-08-25T16:26:11;4.95;;;1.60;;
74229;SDS011;62589;12.568;99.958;2022-08-25T16:28:38;4.85;;;1.70;;
74229;SDS011;62589;12.568;99.958;2022-08-25T16:31:08;6.50;;;1.80;;
74229;SDS011;62589;12.568;99.958;2022-08-25T16:33:34;3.35;;;1.83;;
74229;SDS011;62589;12.568;99.958;2022-08-25T16:36:04;9.05;;;1.95;;
74229;SDS011;62589;12.568;99.958;2022-08-25T16:38:34;4.87;;;1.37;;
74229;SDS011;62589;12.568;99.958;2022-08-25T16:41:05;3.60;;;1.73;;
74229;SDS011;62589;12.568;99.958;2022-08-25T16:43:32;5.38;;;1.58;;